sensor_id;sensor_type;location;lat;lon;timestamp;P1;durP1;ratioP1;P2;durP2;ratioP2
13439;SDS011;6792;57.698;11.946;2023-06-10T00:00:49;0.75;;;0.75;;
13439;SDS011;6792;57.698;11.946;2023-06-10T00:03:19;1.35;;;0.70;;
13439;SDS011;6792;57.698;11.946;2023-06-10T00:05:50;1.05;;;0.60;;
13439;SDS011;6792;57.698;11.946;2023-06-10T00:08:19;2.42;;;0.60;;
13439;SDS011;6792;57.698;11.946;2023-06-10T00:10:48;2.52;;;0.62;;
13439;SDS011;6792;57.698;11.946;2023-06-10T00:13:18;1.65;;;0.55;;
13439;SDS011;6792;57.698;11.946;2023-06-10T00:15:47;1.90;;;0.90;;
13439;SDS011;6792;57.698;11.946;2023-06-10T00:18:16;1.30;;;0.60;;
13439;SDS011;6792;57.698;11.946;2023-06-10T00:20:47;1.30;;;0.60;;
13439;SDS011;6792;57.698;11.946;2023-06-10T00:23:18;1.70;;;0.70;;
13439;SDS011;6792;57.698;11.946;2023-06-10T00:25:47;1.47;;;0.85;;
13439;SDS011;6792;57.698;11.946;2023-06-10T00:28:16;1.32;;;0.50;;
13439;SDS011;6792;57.698;11.946;2023-06-10T00:30:45;0.50;;;0.50;;
13439;SDS011;6792;57.698;11.946;2023-06-10T00:33:14;0.82;;;0.72;;
13439;SDS011;6792;57.698;11.946;2023-06-10T00:35:46;0.45;;;0.45;;
13439;SDS011;6792;57.698;11.946;2023-06-10T00:38:18;0.50;;;0.50;;
13439;SDS011;6792;57.698;11.946;2023-06-10T00:40:47;0.60;;;0.60;;
13439;SDS011;6792;57.698;11.946;2023-06-10T00:43:17;0.85;;;0.60;;
13439;SDS011;6792;57.698;11.946;2023-06-10T00:45:46;0.60;;;0.60;;
13439;SDS011;6792;57.698;11.946;2023-06-10T00:48:16;5.30;;;0.80;;
13439;SDS011;6792;57.698;11.946;2023-06-10T00:50:47;1.20;;;0.33;;
13439;SDS011;6792;57.698;11.946;2023-06-10T00:53:18;0.68;;;0.60;;
13439;SDS011;6792;57.698;11.946;2023-06-10T00:55:47;0.90;;;0.55;;
13439;SDS011;6792;57.698;11.946;2023-06-10T00:58:16;0.60;;;0.47;;
13439;SDS011;6792;57.698;11.946;2023-06-10T01:00:46;1.37;;;0.40;;
13439;SDS011;6792;57.698;11.946;2023-06-10T01:03:16;0.70;;;0.50;;
13439;SDS011;6792;57.698;11.946;2023-06-10T01:05:47;0.53;;;0.40;;
13439;SDS011;6792;57.698;11.946;2023-06-10T01:08:24;0.60;;;0.60;;
13439;SDS011;6792;57.698;11.946;2023-06-10T01:10:57;1.20;;;0.78;;
13439;SDS011;6792;57.698;11.946;2023-06-10T01:13:28;0.65;;;0.62;;
13439;SDS011;6792;57.698;11.946;2023-06-10T01:15:58;1.85;;;0.50;;
13439;SDS011;6792;57.698;11.946;2023-06-10T01:18:30;0.50;;;0.50;;
13439;SDS011;6792;57.698;11.946;2023-06-10T01:20:59;0.40;;;0.40;;
13439;SDS011;6792;57.698;11.946;2023-06-10T01:23:30;0.50;;;0.50;;
13439;SDS011;6792;57.698;11.946;2023-06-10T01:26:04;0.65;;;0.45;;
13439;SDS011;6792;57.698;11.946;2023-06-10T01:28:36;0.60;;;0.42;;
13439;SDS011;6792;57.698;11.946;2023-06-10T01:31:09;0.50;;;0.50;;
13439;SDS011;6792;57.698;11.946;2023-06-10T01:33:47;0.75;;;0.42;;
13439;SDS011;6792;57.698;11.946;2023-06-10T01:36:19;0.80;;;0.50;;
13439;SDS011;6792;57.698;11.946;2023-06-10T01:38:51;0.60;;;0.60;;
13439;SDS011;6792;57.698;11.946;2023-06-10T01:41:22;2.33;;;0.70;;
13439;SDS011;6792;57.698;11.946;2023-06-10T01:43:53;0.70;;;0.60;;
13439;SDS011;6792;57.698;11.946;2023-06-10T01:46:23;0.93;;;0.42;;
13439;SDS011;6792;57.698;11.946;2023-06-10T01:48:52;1.98;;;0.40;;
13439;SDS011;6792;57.698;11.946;2023-06-10T01:51:21;0.50;;;0.50;;
13439;SDS011;6792;57.698;11.946;2023-06-10T01:53:50;0.35;;;0.30;;
13439;SDS011;6792;57.698;11.946;2023-06-10T01:56:20;0.60;;;0.30;;
13439;SDS011;6792;57.698;11.946;2023-06-10T01:58:49;0.42;;;0.42;;
13439;SDS011;6792;57.698;11.946;2023-06-10T02:01:20;0.50;;;0.50;;
13439;SDS011;6792;57.698;11.946;2023-06-10T02:03:49;0.40;;;0.40;;
13439;SDS011;6792;57.698;11.946;2023-06-10T02:06:18;0.53;;;0.53;;
13439;SDS011;6792;57.698;11.946;2023-06-10T02:08:47;0.30;;;0.30;;
13439;SDS011;6792;57.698;11.946;2023-06-10T02:11:17;0.60;;;0.60;;
13439;SDS011;6792;57.698;11.946;2023-06-10T02:13:46;0.72;;;0.40;;
13439;SDS011;6792;57.698;11.946;2023-06-10T02:16:17;0.53;;;0.50;;
13439;SDS011;6792;57.698;11.946;2023-06-10T02:18:47;0.20;;;0.20;;
13439;SDS011;6792;57.698;11.946;2023-06-10T02:21:16;0.45;;;0.33;;
13439;SDS011;6792;57.698;11.946;2023-06-10T02:23:48;0.35;;;0.35;;
13439;SDS011;6792;57.698;11.946;2023-06-10T02:26:17;0.33;;;0.30;;
13439;SDS011;6792;57.698;11.946;2023-06-10T02:28:47;0.42;;;0.25;;
13439;SDS011;6792;57.698;11.946;2023-06-10T02:31:16;0.47;;;0.40;;
13439;SDS011;6792;57.698;11.946;2023-06-10T02:33:46;0.30;;;0.30;;
13439;SDS011;6792;57.698;11.946;2023-06-10T02:36:15;0.33;;;0.20;;
13439;SDS011;6792;57.698;11.946;2023-06-10T02:38:44;0.53;;;0.50;;
13439;SDS011;6792;57.698;11.946;2023-06-10T02:41:14;2.20;;;0.40;;
13439;SDS011;6792;57.698;11.946;2023-06-10T02:43:46;0.30;;;0.30;;
13439;SDS011;6792;57.698;11.946;2023-06-10T02:46:17;0.90;;;0.70;;
13439;SDS011;6792;57.698;11.946;2023-06-10T02:48:46;0.72;;;0.47;;
13439;SDS011;6792;57.698;11.946;2023-06-10T02:51:17;0.55;;;0.20;;
13439;SDS011;6792;57.698;11.946;2023-06-10T02:53:47;0.40;;;0.40;;
13439;SDS011;6792;57.698;11.946;2023-06-10T02:56:16;0.47;;;0.40;;
13439;SDS011;6792;57.698;11.946;2023-06-10T02:58:46;0.80;;;0.40;;
13439;SDS011;6792;57.698;11.946;2023-06-10T03:01:16;0.40;;;0.30;;
13439;SDS011;6792;57.698;11.946;2023-06-10T03:03:46;1.05;;;0.40;;
13439;SDS011;6792;57.698;11.946;2023-06-10T03:06:16;1.75;;;0.50;;
13439;SDS011;6792;57.698;11.946;2023-06-10T03:08:49;0.95;;;0.25;;
13439;SDS011;6792;57.698;11.946;2023-06-10T03:11:18;0.20;;;0.20;;
13439;SDS011;6792;57.698;11.946;2023-06-10T03:13:47;0.75;;;0.47;;
13439;SDS011;6792;57.698;11.946;2023-06-10T03:16:16;0.55;;;0.25;;
13439;SDS011;6792;57.698;11.946;2023-06-10T03:18:46;1.30;;;0.30;;
13439;SDS011;6792;57.698;11.946;2023-06-10T03:21:16;2.62;;;0.30;;
13439;SDS011;6792;57.698;11.946;2023-06-10T03:23:49;0.20;;;0.20;;
13439;SDS011;6792;57.698;11.946;2023-06-10T03:26:18;0.82;;;0.42;;
13439;SDS011;6792;57.698;11.946;2023-06-10T03:28:48;0.28;;;0.25;;
13439;SDS011;6792;57.698;11.946;2023-06-10T03:31:17;0.35;;;0.30;;
13439;SDS011;6792;57.698;11.946;2023-06-10T03:33:46;0.40;;;0.40;;
13439;SDS011;6792;57.698;11.946;2023-06-10T03:36:16;0.42;;;0.40;;
13439;SDS011;6792;57.698;11.946;2023-06-10T03:38:47;0.53;;;0.40;;
13439;SDS011;6792;57.698;11.946;2023-06-10T03:41:17;0.30;;;0.30;;
13439;SDS011;6792;57.698;11.946;2023-06-10T03:43:47;0.33;;;0.30;;
13439;SDS011;6792;57.698;11.946;2023-06-10T03:46:17;0.20;;;0.20;;
13439;SDS011;6792;57.698;11.946;2023-06-10T03:48:46;1.60;;;0.30;;
13439;SDS011;6792;57.698;11.946;2023-06-10T03:51:18;0.20;;;0.20;;
13439;SDS011;6792;57.698;11.946;2023-06-10T03:53:47;0.50;;;0.30;;
13439;SDS011;6792;57.698;11.946;2023-06-10T03:56:16;0.20;;;0.20;;
13439;SDS011;6792;57.698;11.946;2023-06-10T03:58:49;0.30;;;0.30;;
13439;SDS011;6792;57.698;11.946;2023-06-10T04:01:18;1.30;;;0.50;;
13439;SDS011;6792;57.698;11.946;2023-06-10T04:03:47;2.25;;;0.47;;
13439;SDS011;6792;57.698;11.946;2023-06-10T04:06:17;0.20;;;0.20;;
13439;SDS011;6792;57.698;11.946;2023-06-10T04:08:48;1.40;;;0.40;;
13439;SDS011;6792;57.698;11.946;2023-06-10T04:11:17;0.45;;;0.45;;
13439;SDS011;6792;57.698;11.946;2023-06-10T04:13:47;1.30;;;0.30;;
13439;SDS011;6792;57.698;11.946;2023-06-10T04:16:17;0.53;;;0.33;;
13439;SDS011;6792;57.698;11.946;2023-06-10T04:18:47;0.42;;;0.30;;
13439;SDS011;6792;57.698;11.946;2023-06-10T04:21:16;1.65;;;0.50;;
13439;SDS011;6792;57.698;11.946;2023-06-10T04:23:46;0.35;;;0.30;;
13439;SDS011;6792;57.698;11.946;2023-06-10T04:26:16;0.47;;;0.28;;
13439;SDS011;6792;57.698;11.946;2023-06-10T04:28:46;1.65;;;0.40;;
13439;SDS011;6792;57.698;11.946;2023-06-10T04:31:17;0.45;;;0.23;;
13439;SDS011;6792;57.698;11.946;2023-06-10T04:33:47;2.37;;;0.23;;
13439;SDS011;6792;57.698;11.946;2023-06-10T04:36:16;0.28;;;0.28;;
13439;SDS011;6792;57.698;11.946;2023-06-10T04:38:47;0.20;;;0.20;;
13439;SDS011;6792;57.698;11.946;2023-06-10T04:41:18;0.40;;;0.23;;
13439;SDS011;6792;57.698;11.946;2023-06-10T04:43:48;0.78;;;0.25;;
13439;SDS011;6792;57.698;11.946;2023-06-10T04:46:17;0.25;;;0.10;;
13439;SDS011;6792;57.698;11.946;2023-06-10T04:48:47;0.25;;;0.10;;
13439;SDS011;6792;57.698;11.946;2023-06-10T04:51:16;0.42;;;0.20;;
13439;SDS011;6792;57.698;11.946;2023-06-10T04:53:45;0.20;;;0.20;;
13439;SDS011;6792;57.698;11.946;2023-06-10T04:56:14;0.50;;;0.30;;
13439;SDS011;6792;57.698;11.946;2023-06-10T04:58:44;0.20;;;0.20;;
13439;SDS011;6792;57.698;11.946;2023-06-10T05:01:15;0.20;;;0.20;;
13439;SDS011;6792;57.698;11.946;2023-06-10T05:03:44;0.40;;;0.20;;
13439;SDS011;6792;57.698;11.946;2023-06-10T05:06:17;0.20;;;0.20;;
13439;SDS011;6792;57.698;11.946;2023-06-10T05:08:47;0.20;;;0.20;;
13439;SDS011;6792;57.698;11.946;2023-06-10T05:11:16;0.20;;;0.20;;
13439;SDS011;6792;57.698;11.946;2023-06-10T05:13:45;0.95;;;0.20;;
13439;SDS011;6792;57.698;11.946;2023-06-10T05:16:16;0.20;;;0.20;;
13439;SDS011;6792;57.698;11.946;2023-06-10T05:18:45;0.10;;;0.10;;
13439;SDS011;6792;57.698;11.946;2023-06-10T05:21:14;3.10;;;0.20;;
13439;SDS011;6792;57.698;11.946;2023-06-10T05:23:44;0.10;;;0.10;;
13439;SDS011;6792;57.698;11.946;2023-06-10T05:26:16;0.15;;;0.10;;
13439;SDS011;6792;57.698;11.946;2023-06-10T05:28:51;0.17;;;0.17;;
13439;SDS011;6792;57.698;11.946;2023-06-10T05:31:20;0.10;;;0.10;;
13439;SDS011;6792;57.698;11.946;2023-06-10T05:33:49;1.30;;;0.25;;
13439;SDS011;6792;57.698;11.946;2023-06-10T05:36:19;0.47;;;0.25;;
13439;SDS011;6792;57.698;11.946;2023-06-10T05:38:48;0.78;;;0.30;;
13439;SDS011;6792;57.698;11.946;2023-06-10T05:41:17;0.20;;;0.20;;
13439;SDS011;6792;57.698;11.946;2023-06-10T05:43:47;0.90;;;0.20;;
13439;SDS011;6792;57.698;11.946;2023-06-10T05:46:16;0.10;;;0.10;;
13439;SDS011;6792;57.698;11.946;2023-06-10T05:48:46;0.45;;;0.23;;
13439;SDS011;6792;57.698;11.946;2023-06-10T05:51:16;0.20;;;0.20;;
13439;SDS011;6792;57.698;11.946;2023-06-10T05:53:47;0.28;;;0.20;;
13439;SDS011;6792;57.698;11.946;2023-06-10T05:56:16;0.20;;;0.20;;
13439;SDS011;6792;57.698;11.946;2023-06-10T05:58:45;0.40;;;0.40;;
13439;SDS011;6792;57.698;11.946;2023-06-10T06:01:14;0.40;;;0.30;;
13439;SDS011;6792;57.698;11.946;2023-06-10T06:03:44;0.42;;;0.30;;
13439;SDS011;6792;57.698;11.946;2023-06-10T06:06:15;0.72;;;0.28;;
13439;SDS011;6792;57.698;11.946;2023-06-10T06:08:46;0.42;;;0.20;;
13439;SDS011;6792;57.698;11.946;2023-06-10T06:11:15;0.30;;;0.10;;
13439;SDS011;6792;57.698;11.946;2023-06-10T06:13:46;0.20;;;0.20;;
13439;SDS011;6792;57.698;11.946;2023-06-10T06:16:17;2.60;;;0.50;;
13439;SDS011;6792;57.698;11.946;2023-06-10T06:18:48;0.20;;;0.20;;
13439;SDS011;6792;57.698;11.946;2023-06-10T06:21:17;1.52;;;0.30;;
13439;SDS011;6792;57.698;11.946;2023-06-10T06:23:46;0.25;;;0.23;;
13439;SDS011;6792;57.698;11.946;2023-06-10T06:26:17;0.35;;;0.15;;
13439;SDS011;6792;57.698;11.946;2023-06-10T06:28:47;0.30;;;0.30;;
13439;SDS011;6792;57.698;11.946;2023-06-10T06:31:16;0.20;;;0.20;;
13439;SDS011;6792;57.698;11.946;2023-06-10T06:33:45;0.93;;;0.13;;
13439;SDS011;6792;57.698;11.946;2023-06-10T06:36:15;0.37;;;0.10;;
13439;SDS011;6792;57.698;11.946;2023-06-10T06:38:44;0.75;;;0.30;;
13439;SDS011;6792;57.698;11.946;2023-06-10T06:41:15;0.17;;;0.17;;
13439;SDS011;6792;57.698;11.946;2023-06-10T06:43:44;0.17;;;0.17;;
13439;SDS011;6792;57.698;11.946;2023-06-10T06:46:13;0.40;;;0.20;;
13439;SDS011;6792;57.698;11.946;2023-06-10T06:48:44;0.40;;;0.40;;
13439;SDS011;6792;57.698;11.946;2023-06-10T06:51:16;0.88;;;0.33;;
13439;SDS011;6792;57.698;11.946;2023-06-10T06:53:47;2.00;;;0.30;;
13439;SDS011;6792;57.698;11.946;2023-06-10T06:56:17;3.40;;;0.50;;
13439;SDS011;6792;57.698;11.946;2023-06-10T06:58:47;2.42;;;0.50;;
13439;SDS011;6792;57.698;11.946;2023-06-10T07:01:19;0.98;;;0.17;;
13439;SDS011;6792;57.698;11.946;2023-06-10T07:03:48;0.28;;;0.28;;
13439;SDS011;6792;57.698;11.946;2023-06-10T07:06:17;0.35;;;0.20;;
13439;SDS011;6792;57.698;11.946;2023-06-10T07:08:46;0.10;;;0.10;;
13439;SDS011;6792;57.698;11.946;2023-06-10T07:11:17;0.95;;;0.23;;
13439;SDS011;6792;57.698;11.946;2023-06-10T07:13:47;1.15;;;0.23;;
13439;SDS011;6792;57.698;11.946;2023-06-10T07:16:16;1.70;;;0.35;;
13439;SDS011;6792;57.698;11.946;2023-06-10T07:18:47;0.85;;;0.40;;
13439;SDS011;6792;57.698;11.946;2023-06-10T07:21:16;1.32;;;0.33;;
13439;SDS011;6792;57.698;11.946;2023-06-10T07:23:47;3.50;;;0.30;;
13439;SDS011;6792;57.698;11.946;2023-06-10T07:26:19;7.85;;;0.60;;
13439;SDS011;6792;57.698;11.946;2023-06-10T07:28:49;1.45;;;0.60;;
13439;SDS011;6792;57.698;11.946;2023-06-10T07:31:18;0.88;;;0.30;;
13439;SDS011;6792;57.698;11.946;2023-06-10T07:33:47;0.57;;;0.30;;
13439;SDS011;6792;57.698;11.946;2023-06-10T07:36:17;2.80;;;0.50;;
13439;SDS011;6792;57.698;11.946;2023-06-10T07:38:46;1.47;;;0.40;;
13439;SDS011;6792;57.698;11.946;2023-06-10T07:41:18;0.68;;;0.50;;
13439;SDS011;6792;57.698;11.946;2023-06-10T07:43:47;0.62;;;0.35;;
13439;SDS011;6792;57.698;11.946;2023-06-10T07:46:18;2.35;;;0.50;;
13439;SDS011;6792;57.698;11.946;2023-06-10T07:48:48;0.57;;;0.40;;
13439;SDS011;6792;57.698;11.946;2023-06-10T07:51:17;0.35;;;0.35;;
13439;SDS011;6792;57.698;11.946;2023-06-10T07:53:48;1.37;;;0.37;;
13439;SDS011;6792;57.698;11.946;2023-06-10T07:56:17;0.60;;;0.57;;
13439;SDS011;6792;57.698;11.946;2023-06-10T07:58:48;1.02;;;0.62;;
13439;SDS011;6792;57.698;11.946;2023-06-10T08:01:17;3.65;;;1.02;;
13439;SDS011;6792;57.698;11.946;2023-06-10T08:03:46;0.50;;;0.42;;
13439;SDS011;6792;57.698;11.946;2023-06-10T08:06:16;2.22;;;0.93;;
13439;SDS011;6792;57.698;11.946;2023-06-10T08:08:46;3.52;;;1.50;;
13439;SDS011;6792;57.698;11.946;2023-06-10T08:11:15;3.67;;;1.50;;
13439;SDS011;6792;57.698;11.946;2023-06-10T08:13:45;0.57;;;0.53;;
13439;SDS011;6792;57.698;11.946;2023-06-10T08:16:14;2.12;;;1.00;;
13439;SDS011;6792;57.698;11.946;2023-06-10T08:18:45;0.80;;;0.80;;
13439;SDS011;6792;57.698;11.946;2023-06-10T08:21:16;1.10;;;0.88;;
13439;SDS011;6792;57.698;11.946;2023-06-10T08:23:46;2.37;;;0.78;;
13439;SDS011;6792;57.698;11.946;2023-06-10T08:26:17;1.85;;;1.00;;
13439;SDS011;6792;57.698;11.946;2023-06-10T08:28:47;2.42;;;1.00;;
13439;SDS011;6792;57.698;11.946;2023-06-10T08:31:16;2.52;;;1.20;;
13439;SDS011;6792;57.698;11.946;2023-06-10T08:33:47;8.83;;;1.30;;
13439;SDS011;6792;57.698;11.946;2023-06-10T08:36:18;3.17;;;1.30;;
13439;SDS011;6792;57.698;11.946;2023-06-10T08:38:47;0.90;;;0.80;;
13439;SDS011;6792;57.698;11.946;2023-06-10T08:41:17;3.52;;;1.02;;
13439;SDS011;6792;57.698;11.946;2023-06-10T08:43:48;0.50;;;0.50;;
13439;SDS011;6792;57.698;11.946;2023-06-10T08:46:21;2.60;;;0.82;;
13439;SDS011;6792;57.698;11.946;2023-06-10T08:48:50;1.98;;;0.90;;
13439;SDS011;6792;57.698;11.946;2023-06-10T08:51:23;1.35;;;0.78;;
13439;SDS011;6792;57.698;11.946;2023-06-10T08:53:57;1.30;;;0.90;;
13439;SDS011;6792;57.698;11.946;2023-06-10T08:56:26;1.27;;;0.75;;
13439;SDS011;6792;57.698;11.946;2023-06-10T08:58:57;6.08;;;0.70;;
13439;SDS011;6792;57.698;11.946;2023-06-10T09:01:26;0.62;;;0.50;;
13439;SDS011;6792;57.698;11.946;2023-06-10T09:03:57;3.08;;;0.60;;
13439;SDS011;6792;57.698;11.946;2023-06-10T09:06:27;1.47;;;1.00;;
13439;SDS011;6792;57.698;11.946;2023-06-10T09:08:56;1.00;;;0.62;;
13439;SDS011;6792;57.698;11.946;2023-06-10T09:11:26;0.93;;;0.55;;
13439;SDS011;6792;57.698;11.946;2023-06-10T09:13:56;2.15;;;0.70;;
13439;SDS011;6792;57.698;11.946;2023-06-10T09:16:25;3.20;;;0.80;;
13439;SDS011;6792;57.698;11.946;2023-06-10T09:18:54;0.98;;;0.50;;
13439;SDS011;6792;57.698;11.946;2023-06-10T09:21:25;0.70;;;0.70;;
13439;SDS011;6792;57.698;11.946;2023-06-10T09:23:55;1.20;;;0.62;;
13439;SDS011;6792;57.698;11.946;2023-06-10T09:26:28;1.22;;;0.60;;
13439;SDS011;6792;57.698;11.946;2023-06-10T09:29:02;0.62;;;0.53;;
13439;SDS011;6792;57.698;11.946;2023-06-10T09:31:32;3.22;;;0.68;;
13439;SDS011;6792;57.698;11.946;2023-06-10T09:34:06;0.60;;;0.60;;
13439;SDS011;6792;57.698;11.946;2023-06-10T09:36:36;0.53;;;0.53;;
13439;SDS011;6792;57.698;11.946;2023-06-10T09:39:13;4.35;;;0.80;;
13439;SDS011;6792;57.698;11.946;2023-06-10T09:41:43;1.98;;;0.80;;
13439;SDS011;6792;57.698;11.946;2023-06-10T09:44:13;0.72;;;0.70;;
13439;SDS011;6792;57.698;11.946;2023-06-10T09:46:48;3.37;;;1.10;;
13439;SDS011;6792;57.698;11.946;2023-06-10T09:49:17;2.92;;;1.00;;
13439;SDS011;6792;57.698;11.946;2023-06-10T09:51:50;1.82;;;0.80;;
13439;SDS011;6792;57.698;11.946;2023-06-10T09:54:20;1.00;;;0.60;;
13439;SDS011;6792;57.698;11.946;2023-06-10T09:56:50;0.53;;;0.53;;
13439;SDS011;6792;57.698;11.946;2023-06-10T09:59:28;0.60;;;0.60;;
13439;SDS011;6792;57.698;11.946;2023-06-10T10:01:58;2.45;;;1.02;;
13439;SDS011;6792;57.698;11.946;2023-06-10T10:04:28;1.12;;;0.80;;
13439;SDS011;6792;57.698;11.946;2023-06-10T10:06:57;0.90;;;0.60;;
13439;SDS011;6792;57.698;11.946;2023-06-10T10:09:26;0.65;;;0.62;;
13439;SDS011;6792;57.698;11.946;2023-06-10T10:11:55;2.85;;;0.88;;
13439;SDS011;6792;57.698;11.946;2023-06-10T10:14:27;0.60;;;0.60;;
13439;SDS011;6792;57.698;11.946;2023-06-10T10:16:58;0.70;;;0.70;;
13439;SDS011;6792;57.698;11.946;2023-06-10T10:19:31;0.72;;;0.53;;
13439;SDS011;6792;57.698;11.946;2023-06-10T10:22:03;0.60;;;0.50;;
13439;SDS011;6792;57.698;11.946;2023-06-10T10:24:36;4.58;;;0.75;;
13439;SDS011;6792;57.698;11.946;2023-06-10T10:27:10;5.05;;;0.88;;
13439;SDS011;6792;57.698;11.946;2023-06-10T10:29:51;2.85;;;0.88;;
13439;SDS011;6792;57.698;11.946;2023-06-10T10:32:22;0.82;;;0.62;;
13439;SDS011;6792;57.698;11.946;2023-06-10T10:34:56;0.90;;;0.80;;
13439;SDS011;6792;57.698;11.946;2023-06-10T10:37:27;1.82;;;0.70;;
13439;SDS011;6792;57.698;11.946;2023-06-10T10:39:57;2.70;;;0.60;;
13439;SDS011;6792;57.698;11.946;2023-06-10T10:42:27;0.62;;;0.62;;
13439;SDS011;6792;57.698;11.946;2023-06-10T10:44:57;2.37;;;0.53;;
13439;SDS011;6792;57.698;11.946;2023-06-10T10:47:27;0.60;;;0.60;;
13439;SDS011;6792;57.698;11.946;2023-06-10T10:49:59;3.35;;;0.70;;
13439;SDS011;6792;57.698;11.946;2023-06-10T10:52:28;0.72;;;0.65;;
13439;SDS011;6792;57.698;11.946;2023-06-10T10:55:00;0.78;;;0.78;;
13439;SDS011;6792;57.698;11.946;2023-06-10T10:57:34;0.82;;;0.70;;
13439;SDS011;6792;57.698;11.946;2023-06-10T11:00:08;0.78;;;0.62;;
13439;SDS011;6792;57.698;11.946;2023-06-10T11:02:42;2.77;;;0.75;;
13439;SDS011;6792;57.698;11.946;2023-06-10T11:05:15;0.72;;;0.60;;
13439;SDS011;6792;57.698;11.946;2023-06-10T11:07:53;0.60;;;0.60;;
13439;SDS011;6792;57.698;11.946;2023-06-10T11:10:29;0.60;;;0.60;;
13439;SDS011;6792;57.698;11.946;2023-06-10T11:12:59;1.65;;;0.60;;
13439;SDS011;6792;57.698;11.946;2023-06-10T11:15:30;1.07;;;0.98;;
13439;SDS011;6792;57.698;11.946;2023-06-10T11:18:09;1.45;;;0.70;;
13439;SDS011;6792;57.698;11.946;2023-06-10T11:20:56;0.93;;;0.75;;
13439;SDS011;6792;57.698;11.946;2023-06-10T11:23:34;7.22;;;0.80;;
13439;SDS011;6792;57.698;11.946;2023-06-10T11:26:13;0.60;;;0.60;;
13439;SDS011;6792;57.698;11.946;2023-06-10T11:31:41;1.00;;;0.80;;
13439;SDS011;6792;57.698;11.946;2023-06-10T11:34:12;0.90;;;0.70;;
13439;SDS011;6792;57.698;11.946;2023-06-10T11:36:43;1.40;;;0.68;;
13439;SDS011;6792;57.698;11.946;2023-06-10T11:39:17;1.27;;;0.80;;
13439;SDS011;6792;57.698;11.946;2023-06-10T11:41:47;1.77;;;0.70;;
13439;SDS011;6792;57.698;11.946;2023-06-10T11:44:18;0.80;;;0.80;;
13439;SDS011;6792;57.698;11.946;2023-06-10T11:46:49;0.82;;;0.82;;
13439;SDS011;6792;57.698;11.946;2023-06-10T11:49:20;1.42;;;0.80;;
13439;SDS011;6792;57.698;11.946;2023-06-10T11:51:50;1.35;;;0.70;;
13439;SDS011;6792;57.698;11.946;2023-06-10T11:54:20;5.53;;;0.90;;
13439;SDS011;6792;57.698;11.946;2023-06-10T11:56:49;0.82;;;0.70;;
13439;SDS011;6792;57.698;11.946;2023-06-10T11:59:21;0.75;;;0.75;;
13439;SDS011;6792;57.698;11.946;2023-06-10T12:01:54;2.40;;;0.75;;
13439;SDS011;6792;57.698;11.946;2023-06-10T12:04:24;1.75;;;0.80;;
13439;SDS011;6792;57.698;11.946;2023-06-10T12:06:54;3.02;;;1.05;;
13439;SDS011;6792;57.698;11.946;2023-06-10T12:09:27;1.55;;;1.00;;
13439;SDS011;6792;57.698;11.946;2023-06-10T12:12:00;0.93;;;0.88;;
13439;SDS011;6792;57.698;11.946;2023-06-10T12:17:21;1.32;;;0.68;;
13439;SDS011;6792;57.698;11.946;2023-06-10T12:19:51;3.50;;;0.88;;
13439;SDS011;6792;57.698;11.946;2023-06-10T12:22:20;0.80;;;0.80;;
13439;SDS011;6792;57.698;11.946;2023-06-10T12:24:58;0.75;;;0.60;;
13439;SDS011;6792;57.698;11.946;2023-06-10T12:27:28;1.27;;;0.80;;
13439;SDS011;6792;57.698;11.946;2023-06-10T12:29:58;1.05;;;0.93;;
13439;SDS011;6792;57.698;11.946;2023-06-10T12:32:36;0.70;;;0.65;;
13439;SDS011;6792;57.698;11.946;2023-06-10T12:35:07;4.80;;;1.25;;
13439;SDS011;6792;57.698;11.946;2023-06-10T12:37:38;10.30;;;1.22;;
13439;SDS011;6792;57.698;11.946;2023-06-10T12:40:08;1.10;;;0.65;;
13439;SDS011;6792;57.698;11.946;2023-06-10T12:42:38;1.67;;;0.90;;
13439;SDS011;6792;57.698;11.946;2023-06-10T12:45:08;5.10;;;1.00;;
13439;SDS011;6792;57.698;11.946;2023-06-10T12:47:39;2.90;;;0.88;;
13439;SDS011;6792;57.698;11.946;2023-06-10T12:50:09;2.40;;;1.07;;
13439;SDS011;6792;57.698;11.946;2023-06-10T12:52:39;3.37;;;0.82;;
13439;SDS011;6792;57.698;11.946;2023-06-10T12:55:08;0.60;;;0.60;;
13439;SDS011;6792;57.698;11.946;2023-06-10T12:57:47;0.60;;;0.60;;
13439;SDS011;6792;57.698;11.946;2023-06-10T13:00:18;0.80;;;0.72;;
13439;SDS011;6792;57.698;11.946;2023-06-10T13:02:48;2.22;;;0.78;;
13439;SDS011;6792;57.698;11.946;2023-06-10T13:05:18;4.62;;;0.80;;
13439;SDS011;6792;57.698;11.946;2023-06-10T13:07:47;1.22;;;0.70;;
13439;SDS011;6792;57.698;11.946;2023-06-10T13:10:17;0.80;;;0.80;;
13439;SDS011;6792;57.698;11.946;2023-06-10T13:12:47;4.78;;;0.70;;
13439;SDS011;6792;57.698;11.946;2023-06-10T13:15:17;1.87;;;0.93;;
13439;SDS011;6792;57.698;11.946;2023-06-10T13:17:46;1.10;;;1.00;;
13439;SDS011;6792;57.698;11.946;2023-06-10T13:20:17;1.72;;;0.90;;
13439;SDS011;6792;57.698;11.946;2023-06-10T13:22:48;1.55;;;0.82;;
13439;SDS011;6792;57.698;11.946;2023-06-10T13:25:17;1.35;;;0.80;;
13439;SDS011;6792;57.698;11.946;2023-06-10T13:27:46;2.55;;;0.80;;
13439;SDS011;6792;57.698;11.946;2023-06-10T13:30:16;2.72;;;1.00;;
13439;SDS011;6792;57.698;11.946;2023-06-10T13:32:46;1.80;;;0.78;;
13439;SDS011;6792;57.698;11.946;2023-06-10T13:35:15;0.57;;;0.57;;
13439;SDS011;6792;57.698;11.946;2023-06-10T13:37:44;1.95;;;0.95;;
13439;SDS011;6792;57.698;11.946;2023-06-10T13:40:14;1.00;;;0.90;;
13439;SDS011;6792;57.698;11.946;2023-06-10T13:42:45;0.82;;;0.75;;
13439;SDS011;6792;57.698;11.946;2023-06-10T13:45:16;0.75;;;0.75;;
13439;SDS011;6792;57.698;11.946;2023-06-10T13:47:46;0.90;;;0.80;;
13439;SDS011;6792;57.698;11.946;2023-06-10T13:50:19;1.00;;;0.80;;
13439;SDS011;6792;57.698;11.946;2023-06-10T13:52:48;1.52;;;1.00;;
13439;SDS011;6792;57.698;11.946;2023-06-10T13:55:17;1.30;;;0.85;;
13439;SDS011;6792;57.698;11.946;2023-06-10T13:57:47;1.67;;;0.80;;
13439;SDS011;6792;57.698;11.946;2023-06-10T14:00:17;1.42;;;0.72;;
13439;SDS011;6792;57.698;11.946;2023-06-10T14:02:46;4.03;;;1.00;;
13439;SDS011;6792;57.698;11.946;2023-06-10T14:05:16;1.52;;;0.85;;
13439;SDS011;6792;57.698;11.946;2023-06-10T14:07:47;1.02;;;1.02;;
13439;SDS011;6792;57.698;11.946;2023-06-10T14:10:16;1.20;;;0.93;;
13439;SDS011;6792;57.698;11.946;2023-06-10T14:12:48;0.80;;;0.80;;
13439;SDS011;6792;57.698;11.946;2023-06-10T14:15:18;1.32;;;0.90;;
13439;SDS011;6792;57.698;11.946;2023-06-10T14:17:47;1.82;;;1.00;;
13439;SDS011;6792;57.698;11.946;2023-06-10T14:20:16;1.80;;;0.90;;
13439;SDS011;6792;57.698;11.946;2023-06-10T14:22:46;3.52;;;1.15;;
13439;SDS011;6792;57.698;11.946;2023-06-10T14:25:17;3.67;;;1.17;;
13439;SDS011;6792;57.698;11.946;2023-06-10T14:27:46;1.00;;;1.00;;
13439;SDS011;6792;57.698;11.946;2023-06-10T14:30:17;1.85;;;0.98;;
13439;SDS011;6792;57.698;11.946;2023-06-10T14:32:46;1.37;;;1.27;;
13439;SDS011;6792;57.698;11.946;2023-06-10T14:35:18;2.00;;;1.05;;
13439;SDS011;6792;57.698;11.946;2023-06-10T14:37:48;1.10;;;1.00;;
13439;SDS011;6792;57.698;11.946;2023-06-10T14:40:17;1.20;;;0.85;;
13439;SDS011;6792;57.698;11.946;2023-06-10T14:42:47;0.82;;;0.80;;
13439;SDS011;6792;57.698;11.946;2023-06-10T14:45:16;1.37;;;1.00;;
13439;SDS011;6792;57.698;11.946;2023-06-10T14:47:46;1.65;;;0.90;;
13439;SDS011;6792;57.698;11.946;2023-06-10T14:50:17;1.15;;;1.05;;
13439;SDS011;6792;57.698;11.946;2023-06-10T14:52:46;0.80;;;0.80;;
13439;SDS011;6792;57.698;11.946;2023-06-10T14:55:19;0.90;;;0.80;;
13439;SDS011;6792;57.698;11.946;2023-06-10T14:57:49;1.17;;;0.85;;
13439;SDS011;6792;57.698;11.946;2023-06-10T15:00:18;1.35;;;0.90;;
13439;SDS011;6792;57.698;11.946;2023-06-10T15:02:49;1.50;;;0.90;;
13439;SDS011;6792;57.698;11.946;2023-06-10T15:05:19;2.72;;;1.02;;
13439;SDS011;6792;57.698;11.946;2023-06-10T15:07:49;1.55;;;0.82;;
13439;SDS011;6792;57.698;11.946;2023-06-10T15:10:18;1.62;;;0.70;;
13439;SDS011;6792;57.698;11.946;2023-06-10T15:12:47;2.05;;;0.80;;